createdAt,value
2018-12-18T06:28:03.127Z,5.92
2018-12-18T06:29:10.156Z,5.94
2018-12-18T06:30:17.035Z,5.95
2018-12-18T06:31:24.166Z,5.96
2018-12-18T06:32:30.875Z,5.95
2018-12-18T06:33:37.631Z,5.95
2018-12-18T06:34:44.305Z,5.94
2018-12-18T06:35:51.064Z,5.95
2018-12-18T06:36:57.760Z,5.94
2018-12-18T06:38:04.497Z,5.94
2018-12-18T06:39:11.263Z,5.94
2018-12-18T06:40:17.932Z,5.94
2018-12-18T06:41:25.227Z,5.94
2018-12-18T06:42:31.860Z,5.95
2018-12-18T06:43:39.048Z,5.93
2018-12-18T06:44:45.694Z,5.95
2018-12-18T06:45:52.885Z,5.95
2018-12-18T06:46:59.660Z,5.94
2018-12-18T06:48:07.032Z,5.95
2018-12-18T06:49:13.784Z,5.93
2018-12-18T06:50:20.643Z,5.94
2018-12-18T06:51:27.339Z,5.93
2018-12-18T06:52:34.004Z,5.94
2018-12-18T06:53:40.649Z,5.92
2018-12-18T06:54:47.817Z,5.93
2018-12-18T06:55:54.496Z,5.94
2018-12-18T06:57:01.565Z,5.94
2018-12-18T06:58:08.725Z,5.93
2018-12-18T06:59:15.801Z,5.94
2018-12-18T07:00:22.978Z,5.94
2018-12-18T07:01:29.659Z,5.94
2018-12-18T07:02:36.871Z,5.92
2018-12-18T07:03:43.686Z,5.95
2018-12-18T07:04:50.443Z,5.93
2018-12-18T07:05:57.100Z,5.94
2018-12-18T07:07:03.882Z,5.93
2018-12-18T07:08:10.628Z,5.94
2018-12-18T07:09:17.289Z,5.94
2018-12-18T07:10:24.472Z,5.92
2018-12-18T07:11:31.017Z,5.92
2018-12-18T07:12:38.319Z,5.93
2018-12-18T07:13:44.964Z,5.92
2018-12-18T07:14:52.240Z,5.91
2018-12-18T07:15:58.799Z,5.92
2018-12-18T07:17:06.091Z,5.92
2018-12-18T07:18:12.952Z,5.92
2018-12-18T07:19:19.712Z,5.92
2018-12-18T07:20:26.242Z,5.93
2018-12-18T07:21:33.437Z,5.93
2018-12-18T07:22:40.402Z,5.92
2018-12-18T07:23:47.079Z,5.92
2018-12-18T07:24:53.830Z,5.93
2018-12-18T07:26:00.536Z,5.93
2018-12-18T07:27:07.303Z,5.92
2018-12-18T07:28:14.049Z,5.92
2018-12-18T07:29:20.777Z,5.94
2018-12-18T07:30:27.672Z,5.94
2018-12-18T07:31:34.547Z,5.92
2018-12-18T07:32:41.139Z,5.94
2018-12-18T07:33:48.263Z,5.94
2018-12-18T07:34:55.552Z,5.94
2018-12-18T07:36:02.417Z,5.94
2018-12-18T07:37:09.081Z,5.94
2018-12-18T07:38:15.751Z,5.94
2018-12-18T07:39:22.611Z,5.94
2018-12-18T07:40:29.087Z,5.94
2018-12-18T07:41:36.447Z,5.94
2018-12-18T07:42:43.099Z,5.95
2018-12-18T07:43:50.326Z,5.93
2018-12-18T07:44:56.936Z,5.94
2018-12-18T07:46:04.132Z,5.94
2018-12-18T07:47:10.928Z,5.93
2018-12-18T07:48:17.649Z,5.92
2018-12-18T07:49:24.316Z,5.93
2018-12-18T07:50:30.976Z,5.93
2018-12-18T07:51:38.252Z,5.92
2018-12-18T07:52:44.942Z,5.91
2018-12-18T07:53:51.785Z,5.92
2018-12-18T07:54:58.536Z,5.91
2018-12-18T07:56:05.836Z,5.93
2018-12-18T07:57:12.500Z,5.91
2018-12-18T07:58:19.764Z,5.92
2018-12-18T07:59:26.440Z,5.92
2018-12-18T08:00:33.138Z,5.91
2018-12-18T08:01:40.374Z,5.92
2018-12-18T08:02:46.917Z,5.91
2018-12-18T08:03:54.097Z,5.91
2018-12-18T08:05:01.145Z,5.92
2018-12-18T08:06:08.463Z,5.91
2018-12-18T08:07:15.133Z,5.91
2018-12-18T08:08:22.396Z,5.93
2018-12-18T08:09:28.984Z,5.91
2018-12-18T08:10:36.215Z,5.92
2018-12-18T08:11:42.889Z,5.92
2018-12-18T08:12:49.687Z,5.93
2018-12-18T08:13:56.321Z,5.93
2018-12-18T08:15:03.486Z,5.92
2018-12-18T08:16:10.272Z,5.93
2018-12-18T08:17:16.935Z,5.92
2018-12-18T08:18:24.196Z,5.93
2018-12-18T08:19:30.860Z,5.92
2018-12-18T08:20:38.112Z,5.92
2018-12-18T08:21:44.705Z,5.93
2018-12-18T08:22:51.583Z,5.92
2018-12-18T08:23:58.223Z,5.93
2018-12-18T08:25:05.513Z,5.93
2018-12-18T08:26:12.166Z,5.92
2018-12-18T08:27:19.364Z,5.93
2018-12-18T08:28:25.917Z,5.93
2018-12-18T08:29:33.075Z,5.93
2018-12-18T08:30:40.552Z,5.93
2018-12-18T08:31:47.130Z,5.92
2018-12-18T08:32:54.320Z,5.92
2018-12-18T08:34:00.957Z,5.92
2018-12-18T08:35:07.820Z,5.93
2018-12-18T08:36:14.480Z,5.93
2018-12-18T08:37:22.192Z,5.92
2018-12-18T08:38:28.555Z,5.93
2018-12-18T08:39:35.359Z,5.94
2018-12-18T08:40:42.337Z,5.93
2018-12-18T08:41:49.136Z,5.94
2018-12-18T08:42:56.269Z,5.93
2018-12-18T08:44:03.485Z,5.93
2018-12-18T08:45:10.347Z,5.94
2018-12-18T08:46:17.012Z,5.93
2018-12-18T08:47:24.220Z,5.93
2018-12-18T08:48:30.948Z,5.93
2018-12-18T08:49:37.717Z,5.93
2018-12-18T08:50:44.372Z,5.94
2018-12-18T08:51:51.649Z,5.93
2018-12-18T08:52:58.328Z,5.95
2018-12-18T08:54:05.389Z,5.96
2018-12-18T08:55:12.056Z,5.95
2018-12-18T08:56:19.829Z,5.95
2018-12-18T08:57:26.254Z,5.95
2018-12-18T08:58:33.053Z,5.94
2018-12-18T08:59:40.241Z,5.95
2018-12-18T09:00:46.816Z,5.96
2018-12-18T09:01:54.079Z,5.96
2018-12-18T09:03:00.664Z,5.96
2018-12-18T09:04:07.920Z,5.96
2018-12-18T09:05:14.764Z,5.97
2018-12-18T09:06:21.549Z,5.96
2018-12-18T09:07:28.315Z,5.97
2018-12-18T09:08:35.528Z,5.96
2018-12-18T09:09:41.944Z,5.95
2018-12-18T09:10:48.507Z,5.96
2018-12-18T09:11:55.652Z,5.96
2018-12-18T09:13:02.976Z,5.97
2018-12-18T09:14:10.059Z,5.97
2018-12-18T09:15:16.794Z,5.96
2018-12-18T09:16:23.731Z,5.97
2018-12-18T09:17:30.533Z,5.97
2018-12-18T09:18:37.541Z,5.97
2018-12-18T09:19:44.514Z,5.97
2018-12-18T09:20:51.338Z,5.96
2018-12-18T09:21:58.112Z,5.96
2018-12-18T09:23:05.137Z,5.98
2018-12-18T09:24:11.838Z,5.96
2018-12-18T09:25:18.904Z,5.97
2018-12-18T09:26:26.041Z,5.99
2018-12-18T09:27:33.216Z,5.98
2018-12-18T09:28:40.845Z,5.98
2018-12-18T09:29:47.111Z,5.99
2018-12-18T09:30:54.324Z,5.98
2018-12-18T09:32:00.893Z,6.01
2018-12-18T09:33:08.151Z,6.01
2018-12-18T09:34:14.721Z,6.02
2018-12-18T09:35:21.918Z,6.03
2018-12-18T09:36:28.613Z,6.03
2018-12-18T09:37:35.350Z,6.05
2018-12-18T09:38:42.061Z,6.06
2018-12-18T09:39:49.105Z,6.06
2018-12-18T09:40:55.869Z,6.06
2018-12-18T09:42:02.525Z,6.06
2018-12-18T09:43:09.313Z,6.06
2018-12-18T09:44:16.165Z,6.06
2018-12-18T09:45:23.028Z,6.05
2018-12-18T09:46:29.700Z,6.06
2018-12-18T09:47:36.973Z,6.06
2018-12-18T09:48:43.652Z,6.07
2018-12-18T09:49:50.388Z,6.07
2018-12-18T09:50:57.398Z,6.07
2018-12-18T09:52:04.031Z,6.07
2018-12-18T09:53:11.223Z,6.07
2018-12-18T09:54:17.965Z,6.07
2018-12-18T09:55:25.252Z,6.08
2018-12-18T09:56:31.923Z,6.07
2018-12-18T09:57:38.661Z,6.08
2018-12-18T09:58:45.556Z,6.08
2018-12-18T09:59:52.312Z,6.08
2018-12-18T10:00:58.973Z,6.07
2018-12-18T10:02:05.744Z,6.08
2018-12-18T10:03:12.394Z,6.09
2018-12-18T10:04:19.508Z,6.09
2018-12-18T10:05:26.639Z,6.10
2018-12-18T10:06:33.720Z,6.11
2018-12-18T10:07:40.888Z,6.12
2018-12-18T10:08:48.088Z,6.10
2018-12-18T10:09:54.923Z,6.11
2018-12-18T10:11:01.537Z,6.13
2018-12-18T10:12:08.768Z,6.12
2018-12-18T10:13:15.522Z,6.13
2018-12-18T10:14:22.243Z,6.13
2018-12-18T10:15:28.848Z,6.14
2018-12-18T10:16:36.248Z,6.15
2018-12-18T10:17:42.903Z,6.15
2018-12-18T10:18:49.706Z,6.15
2018-12-18T10:19:56.332Z,6.16
2018-12-18T10:21:03.488Z,6.16
2018-12-18T10:22:10.677Z,6.16
2018-12-18T10:23:17.453Z,6.17
2018-12-18T10:24:24.241Z,6.17
2018-12-18T10:25:30.809Z,6.17
2018-12-18T10:26:38.055Z,6.18
2018-12-18T10:27:44.632Z,6.18
2018-12-18T10:28:51.884Z,6.21
2018-12-18T10:29:58.479Z,6.20
2018-12-18T10:31:05.704Z,6.23
2018-12-18T10:32:12.307Z,6.25
2018-12-18T10:33:19.396Z,6.24
2018-12-18T10:34:26.420Z,6.26
2018-12-18T10:35:36.684Z,6.27
2018-12-18T10:36:40.663Z,6.28
2018-12-18T10:37:47.916Z,6.29
2018-12-18T10:38:54.608Z,6.31
2018-12-18T10:40:01.307Z,6.30
2018-12-18T10:41:08.139Z,6.29
2018-12-18T10:42:14.912Z,6.30
2018-12-18T10:43:21.657Z,6.32
2018-12-18T10:44:28.521Z,6.32
2018-12-18T10:45:35.308Z,6.33
2018-12-18T10:46:41.961Z,6.33
2018-12-18T10:47:49.109Z,6.33
2018-12-18T10:48:56.103Z,6.35
2018-12-18T10:50:03.412Z,6.34
2018-12-18T10:51:10.292Z,6.35
2018-12-18T10:52:16.913Z,6.34
2018-12-18T10:53:24.089Z,6.35
2018-12-18T10:54:30.752Z,6.35
2018-12-18T10:55:37.533Z,6.37
2018-12-18T10:56:44.193Z,6.35
2018-12-18T10:57:51.413Z,6.37
2018-12-18T10:58:58.081Z,6.38
2018-12-18T11:00:05.316Z,6.38
2018-12-18T11:01:12.468Z,6.37
2018-12-18T11:02:19.243Z,6.39
2018-12-18T11:03:25.920Z,6.38
2018-12-18T11:04:33.032Z,6.39
2018-12-18T11:05:40.277Z,6.39
2018-12-18T11:06:46.902Z,6.41
2018-12-18T11:07:54.092Z,6.40
2018-12-18T11:09:00.869Z,6.42
2018-12-18T11:10:08.136Z,6.42
2018-12-18T11:11:14.689Z,6.42
2018-12-18T11:12:21.991Z,6.42
2018-12-18T11:13:28.728Z,6.44
2018-12-18T11:14:35.928Z,6.44
2018-12-18T11:15:42.685Z,6.46
2018-12-18T11:16:49.779Z,6.46
2018-12-18T11:17:56.425Z,6.46
2018-12-18T11:19:03.490Z,6.47
2018-12-18T11:20:10.864Z,6.48
2018-12-18T11:21:17.540Z,6.48
2018-12-18T11:22:24.224Z,6.49
2018-12-18T11:23:30.947Z,6.50
2018-12-18T11:24:37.680Z,6.51
2018-12-18T11:25:44.803Z,6.49
2018-12-18T11:26:52.715Z,6.52
2018-12-18T11:28:00.964Z,6.50
2018-12-18T11:29:05.804Z,6.51
2018-12-18T11:30:12.390Z,6.51
2018-12-18T11:31:19.609Z,6.52
2018-12-18T11:32:32.944Z,6.52
2018-12-18T11:33:32.937Z,6.54
2018-12-18T11:34:40.097Z,6.53
2018-12-18T11:35:47.209Z,6.53
2018-12-18T11:36:54.376Z,6.54
2018-12-18T11:38:01.148Z,6.54
2018-12-18T11:39:08.008Z,6.55
2018-12-18T11:40:14.672Z,6.54
2018-12-18T11:41:21.976Z,6.54
2018-12-18T11:42:28.620Z,6.55
2018-12-18T11:43:35.892Z,6.57
2018-12-18T11:44:42.549Z,6.57
2018-12-18T11:45:49.756Z,6.57
2018-12-18T11:46:56.389Z,6.58
2018-12-18T11:48:03.571Z,6.58
2018-12-18T11:49:10.437Z,6.57
2018-12-18T11:50:17.209Z,6.58
2018-12-18T11:51:23.895Z,6.59
2018-12-18T11:52:31.036Z,6.58
2018-12-18T11:53:37.895Z,6.59
2018-12-18T11:54:44.467Z,6.59
2018-12-18T11:55:51.764Z,6.59
2018-12-18T11:56:58.372Z,6.59
2018-12-18T11:58:05.687Z,6.60
2018-12-18T11:59:12.308Z,6.60
2018-12-18T12:00:19.428Z,6.59
2018-12-18T12:01:26.308Z,6.60
2018-12-18T12:02:32.955Z,6.61
2018-12-18T12:03:40.317Z,6.62
2018-12-18T12:04:47.064Z,6.62
2018-12-18T12:05:53.724Z,6.61
2018-12-18T12:07:00.316Z,6.62
2018-12-18T12:08:07.627Z,6.62
2018-12-18T12:09:14.357Z,6.64
2018-12-18T12:10:21.060Z,6.64
2018-12-18T12:11:27.704Z,6.64
2018-12-18T12:12:34.960Z,6.65
2018-12-18T12:13:41.632Z,6.67
2018-12-18T12:14:48.798Z,6.67
2018-12-18T12:15:55.689Z,6.68
2018-12-18T12:17:02.436Z,6.68
2018-12-18T12:18:08.979Z,6.69
2018-12-18T12:19:16.068Z,6.68
2018-12-18T12:20:23.296Z,6.69
2018-12-18T12:21:29.892Z,6.68
2018-12-18T12:22:37.183Z,6.69
2018-12-18T12:23:43.771Z,6.71
2018-12-18T12:24:51.001Z,6.70
2018-12-18T12:25:57.683Z,6.69
2018-12-18T12:27:04.464Z,6.70
2018-12-18T12:28:11.204Z,6.70
2018-12-18T12:29:18.369Z,6.71
2018-12-18T12:30:25.556Z,6.71
2018-12-18T12:31:32.239Z,6.71
2018-12-18T12:32:38.912Z,6.71
2018-12-18T12:33:45.674Z,6.72
2018-12-18T12:34:52.420Z,6.72
2018-12-18T12:35:59.024Z,6.73
2018-12-18T12:37:06.372Z,6.73
2018-12-18T12:38:13.011Z,6.73
2018-12-18T12:39:20.188Z,6.73
2018-12-18T12:40:26.867Z,6.74
2018-12-18T12:41:34.037Z,6.74
2018-12-18T12:42:41.204Z,6.75
2018-12-18T12:43:47.855Z,6.76
2018-12-18T12:44:55.003Z,6.75
2018-12-18T12:46:02.109Z,6.75
2018-12-18T12:47:09.281Z,6.76
2018-12-18T12:48:16.465Z,6.77
2018-12-18T12:49:23.231Z,6.77
2018-12-18T12:50:29.996Z,6.78
2018-12-18T12:51:36.772Z,6.79
2018-12-18T12:52:43.429Z,6.79
2018-12-18T12:53:50.697Z,6.80
2018-12-18T12:54:57.247Z,6.79
2018-12-18T12:56:04.432Z,6.80
2018-12-18T12:57:11.408Z,6.81
2018-12-18T12:58:17.928Z,6.81
2018-12-18T12:59:25.225Z,6.81
2018-12-18T13:00:31.905Z,6.81
2018-12-18T13:01:42.158Z,6.81
2018-12-18T13:02:45.542Z,6.84
2018-12-18T13:03:52.742Z,6.84
2018-12-18T13:04:59.832Z,6.86
2018-12-18T13:06:07.068Z,6.86
2018-12-18T13:07:13.730Z,6.85
2018-12-18T13:08:20.488Z,6.87
2018-12-18T13:09:27.017Z,6.87
2018-12-18T13:10:34.217Z,6.87
2018-12-18T13:11:41.376Z,6.89
2018-12-18T13:12:48.556Z,6.89
2018-12-18T13:13:55.668Z,6.90
2018-12-18T13:15:02.760Z,6.91
2018-12-18T13:16:09.605Z,6.92
2018-12-18T13:17:16.768Z,6.92
2018-12-18T13:18:23.525Z,6.92
2018-12-18T13:19:30.174Z,6.93
2018-12-18T13:20:36.920Z,6.94
2018-12-18T13:21:43.619Z,6.94
2018-12-18T13:22:50.476Z,6.95
2018-12-18T13:23:57.036Z,6.96
2018-12-18T13:25:04.122Z,6.97
2018-12-18T13:26:11.371Z,6.98
2018-12-18T13:27:18.060Z,6.99
2018-12-18T13:28:24.813Z,6.99
2018-12-18T13:29:31.471Z,7.00
2018-12-18T13:30:38.235Z,7.01
2018-12-18T13:31:44.858Z,7.00
2018-12-18T13:32:52.177Z,7.03
2018-12-18T13:33:58.835Z,7.03
2018-12-18T13:35:06.021Z,7.04
2018-12-18T13:36:12.688Z,7.04
2018-12-18T13:37:19.891Z,7.07
2018-12-18T13:38:26.420Z,7.07
2018-12-18T13:39:33.576Z,7.07
2018-12-18T13:40:40.357Z,7.08
2018-12-18T13:41:46.972Z,7.09
2018-12-18T13:42:54.175Z,7.10
2018-12-18T13:44:00.957Z,7.10
2018-12-18T13:45:07.676Z,7.12
2018-12-18T13:46:15.204Z,7.13
2018-12-18T13:47:27.024Z,7.13
2018-12-18T13:48:27.873Z,7.14
2018-12-18T13:49:35.193Z,7.14
2018-12-18T13:50:41.800Z,7.14
2018-12-18T13:51:48.950Z,7.16
2018-12-18T13:52:56.092Z,7.17
2018-12-18T13:54:03.231Z,7.19
2018-12-18T13:55:10.275Z,7.19
2018-12-18T13:56:17.410Z,7.20
2018-12-18T13:57:24.741Z,7.20
2018-12-18T13:58:31.657Z,7.22
2018-12-18T13:59:38.434Z,7.23
2018-12-18T14:00:45.088Z,7.23
2018-12-18T14:01:52.073Z,7.22
2018-12-18T14:02:58.745Z,7.24
2018-12-18T14:04:06.005Z,7.23
2018-12-18T14:05:12.571Z,7.23
2018-12-18T14:06:19.827Z,7.24
2018-12-18T14:07:26.625Z,7.25
2018-12-18T14:08:33.223Z,7.26
2018-12-18T14:09:40.431Z,7.25
2018-12-18T14:10:47.116Z,7.25
2018-12-18T14:11:54.376Z,7.25
2018-12-18T14:13:01.356Z,7.26
2018-12-18T14:14:08.628Z,7.26
2018-12-18T14:15:15.288Z,7.27
2018-12-18T14:16:22.155Z,7.27
2018-12-18T14:17:28.832Z,7.26
2018-12-18T14:18:35.695Z,7.27
2018-12-18T14:19:42.333Z,7.26
2018-12-18T14:20:49.515Z,7.27
2018-12-18T14:21:56.697Z,7.27
2018-12-18T14:23:03.919Z,7.27
2018-12-18T14:24:10.832Z,7.28
2018-12-18T14:25:17.695Z,7.27
2018-12-18T14:26:24.413Z,7.27
2018-12-18T14:27:31.152Z,7.28
2018-12-18T14:28:37.904Z,7.28
2018-12-18T14:29:44.618Z,7.28
2018-12-18T14:30:51.323Z,7.28
2018-12-18T14:31:57.888Z,7.28
2018-12-18T14:33:05.195Z,7.27
2018-12-18T14:34:11.798Z,7.27
2018-12-18T14:35:18.908Z,7.29
2018-12-18T14:36:26.069Z,7.27
2018-12-18T14:37:33.205Z,7.27
2018-12-18T14:38:40.625Z,7.27
2018-12-18T14:39:47.287Z,7.26
2018-12-18T14:40:54.468Z,7.26
2018-12-18T14:42:01.120Z,7.26
2018-12-18T14:43:08.320Z,7.25
2018-12-18T14:44:15.064Z,7.26
2018-12-18T14:45:21.795Z,7.26
2018-12-18T14:46:28.488Z,7.25
2018-12-18T14:47:35.272Z,7.26
2018-12-18T14:48:41.814Z,7.23
2018-12-18T14:49:48.993Z,7.23
2018-12-18T14:50:55.651Z,7.23
2018-12-18T14:52:02.832Z,7.24
2018-12-18T14:53:09.520Z,7.23
2018-12-18T14:54:16.159Z,7.22
2018-12-18T14:55:23.036Z,7.23
2018-12-18T14:56:29.688Z,7.22
2018-12-18T14:57:36.982Z,7.21
2018-12-18T14:58:43.620Z,7.21
2018-12-18T15:00:58.006Z,7.20
2018-12-18T15:02:04.747Z,7.20
2018-12-18T15:03:11.540Z,7.18
2018-12-18T15:04:18.639Z,7.19
2018-12-18T15:05:25.858Z,7.17
2018-12-18T15:06:32.485Z,7.16
2018-12-18T15:07:39.719Z,7.17
2018-12-18T15:08:46.364Z,7.18
2018-12-18T15:09:53.639Z,7.16
2018-12-18T15:11:00.261Z,7.16
2018-12-18T15:12:08.080Z,7.15
2018-12-18T15:13:14.128Z,7.15
2018-12-18T15:14:21.421Z,7.14
2018-12-18T15:15:28.069Z,7.14
2018-12-18T15:16:35.364Z,7.13
2018-12-18T15:17:42.030Z,7.12
2018-12-18T15:18:48.897Z,7.10
2018-12-18T15:19:56.009Z,7.10
2018-12-18T15:21:03.223Z,7.10
2018-12-18T15:22:09.997Z,7.09
2018-12-18T15:23:16.672Z,7.07
2018-12-18T15:24:23.928Z,7.07
2018-12-18T15:25:30.590Z,7.06
2018-12-18T15:26:37.771Z,7.05
2018-12-18T15:27:44.473Z,7.05
2018-12-18T15:28:51.202Z,7.04
2018-12-18T15:29:57.873Z,7.03
2018-12-18T15:31:04.685Z,7.02
2018-12-18T15:32:11.288Z,7.01
2018-12-18T15:33:18.485Z,7.00
2018-12-18T15:34:25.189Z,6.99
2018-12-18T15:35:32.205Z,6.98
2018-12-18T15:36:39.476Z,6.98
2018-12-18T15:37:46.184Z,6.97
2018-12-18T15:38:53.018Z,6.96
2018-12-18T15:39:59.775Z,6.96
2018-12-18T15:41:06.635Z,6.94
2018-12-18T15:42:13.308Z,6.94
2018-12-18T15:43:20.591Z,6.92
2018-12-18T15:44:27.142Z,6.90
2018-12-18T15:45:34.299Z,6.89
2018-12-18T15:46:41.412Z,6.89
2018-12-18T15:47:48.520Z,6.88
2018-12-18T15:48:55.767Z,6.87
2018-12-18T15:50:02.813Z,6.86
2018-12-18T15:51:10.376Z,6.85
2018-12-18T15:52:16.944Z,6.85
2018-12-18T15:53:24.123Z,6.84
2018-12-18T15:54:31.300Z,6.84
2018-12-18T15:55:38.164Z,6.81
2018-12-18T15:56:44.734Z,6.79
2018-12-18T15:57:52.016Z,6.80
2018-12-18T15:58:58.573Z,6.78
2018-12-18T16:00:05.944Z,6.76
2018-12-18T16:01:12.625Z,6.76
2018-12-18T16:02:24.212Z,6.76
2018-12-18T16:03:26.575Z,6.76
2018-12-18T16:04:33.720Z,6.72
2018-12-18T16:05:42.041Z,6.73
2018-12-18T16:06:47.660Z,6.72
2018-12-18T16:07:54.829Z,6.71
2018-12-18T16:09:01.515Z,6.68
2018-12-18T16:10:08.377Z,6.67
2018-12-18T16:11:15.018Z,6.67
2018-12-18T16:12:22.293Z,6.65
2018-12-18T16:13:28.981Z,6.65
2018-12-18T16:14:35.940Z,6.64
2018-12-18T16:15:43.112Z,6.62
2018-12-18T16:16:49.809Z,6.60
2018-12-18T16:17:56.448Z,6.59
2018-12-18T16:19:03.745Z,6.58
2018-12-18T16:20:10.365Z,6.57
2018-12-18T16:21:17.539Z,6.55
2018-12-18T16:22:24.728Z,6.54
2018-12-18T16:23:31.345Z,6.53
2018-12-18T16:24:38.580Z,6.51
2018-12-18T16:25:45.225Z,6.50
2018-12-18T16:26:52.357Z,6.47
2018-12-18T16:27:59.064Z,6.47
2018-12-18T16:29:06.352Z,6.45
2018-12-18T16:30:13.000Z,6.45
2018-12-18T16:31:19.806Z,6.44
2018-12-18T16:32:26.533Z,6.41
2018-12-18T16:33:33.124Z,6.40
2018-12-18T16:34:40.321Z,6.38
2018-12-18T16:35:46.936Z,6.36
2018-12-18T16:36:54.201Z,6.37
2018-12-18T16:38:00.876Z,6.36
2018-12-18T16:39:08.173Z,6.33
2018-12-18T16:40:14.804Z,6.32
2018-12-18T16:41:22.097Z,6.31
2018-12-18T16:42:28.744Z,6.29
2018-12-18T16:43:35.468Z,6.26
2018-12-18T16:44:42.028Z,6.26
2018-12-18T16:45:49.136Z,6.26
2018-12-18T16:46:56.319Z,6.23
2018-12-18T16:48:03.496Z,6.21
2018-12-18T16:49:10.976Z,6.20
2018-12-18T16:50:17.736Z,6.18
2018-12-18T16:51:24.387Z,6.18
2018-12-18T16:52:31.495Z,6.16
2018-12-18T16:53:38.660Z,6.14
2018-12-18T16:54:45.239Z,6.14
2018-12-18T16:55:52.375Z,6.13
2018-12-18T16:56:59.556Z,6.11
2018-12-18T16:58:06.316Z,6.10
2018-12-18T16:59:12.988Z,6.08
2018-12-18T17:00:19.666Z,6.06
2018-12-18T17:01:26.745Z,6.05
2018-12-18T17:02:33.905Z,6.04
2018-12-18T17:03:40.507Z,6.03
2018-12-18T17:04:47.761Z,6.02
2018-12-18T17:05:54.396Z,5.99
2018-12-18T17:07:01.104Z,5.97
2018-12-18T17:08:08.805Z,5.96
2018-12-18T17:09:15.233Z,5.94
2018-12-18T17:10:22.266Z,5.94
2018-12-18T17:11:28.941Z,5.93
2018-12-18T17:12:36.212Z,5.92
2018-12-18T17:13:43.089Z,5.89
2018-12-18T17:14:49.883Z,5.88
2018-12-18T17:15:56.611Z,5.87
2018-12-18T17:17:03.381Z,5.85
2018-12-18T17:18:10.036Z,5.84
2018-12-18T17:19:18.774Z,5.81
2018-12-18T17:20:23.924Z,5.79
2018-12-18T17:21:31.057Z,5.79
2018-12-18T17:22:38.256Z,5.78
2018-12-18T17:23:44.804Z,5.76
2018-12-18T17:24:52.079Z,5.73
2018-12-18T17:25:58.741Z,5.72
2018-12-18T17:27:06.007Z,5.72
2018-12-18T17:28:13.076Z,5.69
2018-12-18T17:29:19.742Z,5.69
2018-12-18T17:30:26.440Z,5.66
2018-12-18T17:31:33.036Z,5.65
2018-12-18T17:32:40.480Z,5.63
2018-12-18T17:33:47.019Z,5.62
2018-12-18T17:34:54.402Z,5.61
2018-12-18T17:36:01.728Z,5.59
2018-12-18T17:37:08.234Z,5.57
2018-12-18T17:38:14.880Z,5.57
2018-12-18T17:39:21.624Z,5.56
2018-12-18T17:40:28.228Z,5.53
2018-12-18T17:41:35.176Z,5.51
2018-12-18T17:42:41.796Z,5.50
2018-12-18T17:43:48.867Z,5.49
2018-12-18T17:44:56.115Z,5.47
2018-12-18T17:46:02.848Z,5.47
2018-12-18T17:47:09.612Z,5.46
2018-12-18T17:48:16.224Z,5.44
2018-12-18T17:49:23.456Z,5.42
2018-12-18T17:50:30.043Z,5.40
2018-12-18T17:51:36.985Z,5.40
2018-12-18T17:52:43.540Z,5.37
2018-12-18T17:53:50.743Z,5.36
2018-12-18T17:54:57.497Z,5.33
2018-12-18T17:56:04.145Z,5.33
2018-12-18T17:57:11.316Z,5.32
2018-12-18T17:58:17.980Z,5.31
2018-12-18T17:59:26.156Z,5.29
2018-12-18T18:00:32.047Z,5.28
2018-12-18T18:01:39.032Z,5.26
2018-12-18T18:02:45.549Z,5.23
2018-12-18T18:03:52.328Z,5.22
2018-12-18T18:04:58.991Z,5.20
2018-12-18T18:06:06.223Z,5.19
2018-12-18T18:07:12.930Z,5.18
2018-12-18T18:08:19.604Z,5.17
2018-12-18T18:09:26.460Z,5.16
2018-12-18T18:10:33.644Z,5.13
2018-12-18T18:11:40.907Z,5.11
2018-12-18T18:12:47.524Z,5.12
2018-12-18T18:13:54.906Z,5.10
2018-12-18T18:15:01.540Z,5.09
2018-12-18T18:16:08.592Z,5.07
2018-12-18T18:17:15.217Z,5.05
2018-12-18T18:18:22.217Z,5.05
2018-12-18T18:19:28.880Z,5.03
2018-12-18T18:20:36.124Z,5.02
2018-12-18T18:21:44.005Z,5.00
2018-12-18T18:22:49.480Z,5.00
2018-12-18T18:23:56.163Z,4.97
2018-12-18T18:25:03.344Z,4.96
2018-12-18T18:26:10.172Z,4.97
2018-12-18T18:27:16.884Z,4.96
2018-12-18T18:28:23.713Z,4.93
2018-12-18T18:29:30.395Z,4.92
2018-12-18T18:30:37.270Z,4.90
2018-12-18T18:31:43.899Z,4.90
2018-12-18T18:32:50.600Z,4.88
2018-12-18T18:33:57.708Z,4.89
2018-12-18T18:35:04.911Z,4.86
2018-12-18T18:36:12.001Z,4.86
2018-12-18T18:37:18.436Z,4.85
2018-12-18T18:38:25.620Z,4.83
2018-12-18T18:39:32.293Z,4.81
2018-12-18T18:40:39.461Z,4.81
2018-12-18T18:41:46.216Z,4.80
2018-12-18T18:42:52.987Z,4.79
2018-12-18T18:43:59.577Z,4.78
2018-12-18T18:45:06.511Z,4.75
2018-12-18T18:46:13.176Z,4.75
2018-12-18T18:47:20.359Z,4.74
2018-12-18T18:48:27.156Z,4.74
2018-12-18T18:49:33.787Z,4.73
2018-12-18T18:50:40.910Z,4.72
2018-12-18T18:51:47.960Z,4.71
2018-12-18T18:52:55.304Z,4.68
2018-12-18T18:54:01.873Z,4.67
2018-12-18T18:55:09.149Z,4.67
2018-12-18T18:56:15.715Z,4.66
2018-12-18T18:57:22.974Z,4.66
2018-12-18T18:58:29.641Z,4.63
2018-12-18T18:59:36.404Z,4.61
2018-12-18T19:00:42.997Z,4.63
2018-12-18T19:01:50.241Z,4.61
2018-12-18T19:02:56.775Z,4.59
2018-12-18T19:04:03.880Z,4.58
2018-12-18T19:05:11.049Z,4.58
2018-12-18T19:06:18.247Z,4.56
2018-12-18T19:07:25.116Z,4.56
2018-12-18T19:08:31.756Z,4.54
2018-12-18T19:09:38.939Z,4.52
2018-12-18T19:10:45.609Z,4.52
2018-12-18T19:11:52.763Z,4.51
2018-12-18T19:12:59.944Z,4.51
2018-12-18T19:14:06.816Z,4.51
2018-12-18T19:15:13.583Z,4.50
2018-12-18T19:16:20.477Z,4.48
2018-12-18T19:17:27.051Z,4.47
2018-12-18T19:18:34.172Z,4.47
2018-12-18T19:19:41.268Z,4.46
2018-12-18T19:20:48.436Z,4.46
2018-12-18T19:21:55.200Z,4.44
2018-12-18T19:23:01.956Z,4.43
2018-12-18T19:24:08.933Z,4.41
2018-12-18T19:25:15.996Z,4.42
2018-12-18T19:26:22.877Z,4.40
2018-12-18T19:27:29.533Z,4.39
2018-12-18T19:28:36.728Z,4.38
2018-12-18T19:29:43.349Z,4.38
2018-12-18T19:30:50.536Z,4.37
2018-12-18T19:31:57.111Z,4.37
2018-12-18T19:33:04.250Z,4.37
2018-12-18T19:34:11.315Z,4.36
2018-12-18T19:35:18.352Z,4.36
2018-12-18T19:36:25.505Z,4.37
2018-12-18T19:37:32.253Z,4.36
2018-12-18T19:38:39.432Z,4.37
2018-12-18T19:39:48.027Z,4.37
2018-12-18T19:40:53.629Z,4.37
2018-12-18T19:42:00.781Z,4.34
2018-12-18T19:43:07.993Z,4.34
2018-12-18T19:44:14.689Z,4.34
2018-12-18T19:45:21.758Z,4.33
2018-12-18T19:46:28.843Z,4.33
2018-12-18T19:47:35.611Z,4.32
2018-12-18T19:48:42.282Z,4.31
2018-12-18T19:49:49.191Z,4.30
2018-12-18T19:50:55.914Z,4.28
2018-12-18T19:52:02.688Z,4.29
2018-12-18T19:53:09.744Z,4.27
2018-12-18T19:54:16.500Z,4.27
2018-12-18T19:55:23.260Z,4.25
2018-12-18T19:56:30.042Z,4.25
2018-12-18T19:57:36.789Z,4.25
2018-12-18T19:58:44.084Z,4.23
2018-12-18T19:59:51.156Z,4.21
2018-12-18T20:00:59.024Z,4.21
2018-12-18T20:02:04.776Z,4.21
2018-12-18T20:03:11.541Z,4.20
2018-12-18T20:04:18.412Z,4.19
2018-12-18T20:05:25.088Z,4.18
2018-12-18T20:06:31.843Z,4.18
2018-12-18T20:07:38.604Z,4.18
2018-12-18T20:08:45.296Z,4.18
2018-12-18T20:09:52.638Z,4.17
2018-12-18T20:11:01.244Z,4.16
2018-12-18T20:12:08.957Z,4.14
2018-12-18T20:13:13.044Z,4.15
2018-12-18T20:14:20.260Z,4.15
2018-12-18T20:15:26.877Z,4.14
2018-12-18T20:16:33.613Z,4.15
2018-12-18T20:17:40.643Z,4.13
2018-12-18T20:18:47.268Z,4.14
2018-12-18T20:19:54.441Z,4.13
2018-12-18T20:21:01.118Z,4.11
2018-12-18T20:22:08.089Z,4.12
2018-12-18T20:23:15.170Z,4.11
2018-12-18T20:24:23.552Z,4.12
2018-12-18T20:25:28.996Z,4.12
2018-12-18T20:26:35.870Z,4.09
2018-12-18T20:27:42.553Z,4.10
2018-12-18T20:28:49.609Z,4.09
2018-12-18T20:29:56.249Z,4.08
2018-12-18T20:31:05.385Z,4.08
2018-12-18T20:32:10.631Z,4.09
2018-12-18T20:33:17.260Z,4.06
2018-12-18T20:34:24.470Z,4.07
2018-12-18T20:35:31.031Z,4.07
2018-12-18T20:36:38.271Z,4.07
2018-12-18T20:37:44.865Z,4.06
2018-12-18T20:38:52.129Z,4.05
2018-12-18T20:39:58.773Z,4.05
2018-12-18T20:41:05.552Z,4.04
2018-12-18T20:42:12.340Z,4.03
2018-12-18T20:43:19.412Z,4.04
2018-12-18T20:44:26.566Z,4.05
2018-12-18T20:45:33.416Z,4.04
2018-12-18T20:46:40.283Z,4.03
2018-12-18T20:47:47.115Z,4.01
2018-12-18T20:48:53.826Z,4.01
2018-12-18T20:50:00.480Z,4.01
2018-12-18T20:51:07.552Z,4.02
2018-12-18T20:52:14.380Z,4.01
2018-12-18T20:53:21.155Z,4.00
2018-12-18T20:54:28.008Z,4.01
2018-12-18T20:55:35.271Z,4.01
2018-12-18T20:56:41.931Z,3.99
2018-12-18T20:57:48.544Z,4.00
2018-12-18T20:58:55.944Z,3.98
2018-12-18T21:00:02.733Z,3.99
2018-12-18T21:01:09.472Z,3.98
2018-12-18T21:02:16.229Z,4.00
2018-12-18T21:03:22.954Z,3.97
2018-12-18T21:04:30.238Z,3.99
2018-12-18T21:05:37.069Z,3.97
2018-12-18T21:06:43.905Z,3.97
2018-12-18T21:07:50.884Z,3.96
2018-12-18T21:08:57.736Z,3.97
2018-12-18T21:10:04.613Z,3.95
2018-12-18T21:11:11.692Z,3.95
2018-12-18T21:12:18.549Z,3.96
2018-12-18T21:13:26.615Z,3.96
2018-12-18T21:14:32.051Z,3.96
2018-12-18T21:15:38.829Z,3.96
2018-12-18T21:16:45.527Z,3.96
2018-12-18T21:17:52.308Z,3.96
2018-12-18T21:18:58.972Z,3.97